Time;durP1;ratioP1;P1;durP2;ratioP2;P2;SDS_P1;SDS_P2;PMS_P1;PMS_P2;Temp;Humidity;BMP_temperature;BMP_pressure;BME280_temperature;BME280_humidity;BME280_pressure;Samples;Min_cycle;Max_cycle;Signal;HPM_P1;HPM_P2
2024/04/18 00:00:40;;;;;;;5.93;4.88;;;2.50;99.90;;;-144.05;86.87;56989.00;5350348;26;20400;-82
2024/04/18 00:03:06;;;;;;;7.07;5.13;;;;;;;-144.05;86.93;56967.78;5380679;26;20081;-80
2024/04/18 00:05:32;;;;;;;8.95;4.68;;;1.80;99.90;;;-144.05;86.57;57010.25;5378864;26;20001;-79
2024/04/18 00:07:59;;;;;;;7.25;5.10;;;;;;;-144.05;86.56;56999.63;5347092;26;20007;-80
2024/04/18 00:10:24;;;;;;;9.65;4.80;;;1.80;99.90;;;-144.05;86.75;56991.13;5379130;26;20040;-80
2024/04/18 00:12:51;;;;;;;5.53;4.22;;;;;;;-144.05;86.59;57012.38;5395657;26;20001;-77
2024/04/18 00:15:18;;;;;;;6.00;4.43;;;1.50;99.90;;;-144.05;86.72;56984.78;5378986;26;20457;-78
2024/04/18 00:17:43;;;;;;;7.93;4.60;;;1.40;99.90;;;-144.05;86.45;57001.75;5378872;26;20032;-80
2024/04/18 00:20:10;;;;;;;5.80;4.65;;;;;;;-144.05;86.38;56995.38;5347739;26;20012;-78
2024/04/18 00:22:35;;;;;;;6.18;4.30;;;5.90;99.90;;;-144.05;86.15;57020.88;5378592;26;20166;-79
2024/04/18 00:25:01;;;;;;;9.00;5.03;;;1.90;99.90;;;-144.05;86.36;56991.13;5347385;26;20035;-80
2024/04/18 00:27:27;;;;;;;6.28;4.60;;;1.60;99.90;;;-144.05;86.13;56972.03;5378645;26;20413;-79
2024/04/18 00:29:53;;;;;;;7.95;4.90;;;1.90;99.90;;;-144.05;85.81;56999.63;5376969;26;20012;-80
2024/04/18 00:32:19;;;;;;;7.70;4.97;;;;;;;-144.05;85.91;56972.03;5347017;26;20468;-79
2024/04/18 00:34:45;;;;;;;11.05;5.10;;;;;;;-144.05;85.82;56972.03;5376342;26;20004;-79
2024/04/18 00:37:11;;;;;;;7.45;4.38;;;1.70;99.90;;;-144.05;85.95;56989.00;5376353;26;20441;-78
2024/04/18 00:39:38;;;;;;;7.53;4.32;;;;;;;-144.05;85.72;56989.00;5377952;26;20036;-79
2024/04/18 00:42:04;;;;;;;9.30;3.85;;;2.00;99.90;;;-144.05;85.83;56991.13;5331462;26;20012;-82
2024/04/18 00:44:30;;;;;;;7.22;4.20;;;6.00;99.90;;;-144.05;85.17;56986.91;5373921;26;20065;-80
2024/04/18 00:46:57;;;;;;;7.55;4.97;;;1.60;99.90;;;-144.05;85.57;56997.50;5378514;26;20004;-79
2024/04/18 00:49:25;;;;;;;6.70;4.38;;;5.30;99.90;;;-144.05;85.35;56984.78;5378038;26;20081;-79
2024/04/18 00:51:55;;;;;;;7.10;3.95;;;5.30;99.90;;;-144.05;85.39;56989.00;5344476;26;20000;-78
2024/04/18 00:54:22;;;;;;;7.45;3.97;;;1.80;99.90;;;-144.05;85.19;56974.16;5378158;26;20024;-80
2024/04/18 00:56:48;;;;;;;6.68;4.50;;;5.70;99.90;;;-144.05;85.11;56995.38;5348021;26;20384;-79
2024/04/18 00:59:15;;;;;;;7.80;4.43;;;5.30;99.90;;;-144.05;85.23;56997.50;5369288;26;20000;-79
2024/04/18 01:01:47;;;;;;;10.93;4.45;;;5.40;99.90;;;-144.05;85.26;56982.66;5374576;26;20107;-79
2024/04/18 01:04:14;;;;;;;5.75;3.88;;;5.40;99.90;;;-144.05;84.71;56980.53;5378503;26;20012;-80
2024/04/18 01:06:42;;;;;;;6.72;4.43;;;2.00;99.90;;;-144.05;84.92;56980.53;5351226;26;20000;-79
2024/04/18 01:09:08;;;;;;;8.20;4.28;;;1.90;99.90;;;-144.05;84.81;56989.00;5336765;26;20503;-79
2024/04/18 01:11:34;;;;;;;7.18;4.10;;;2.00;99.90;;;-144.05;84.85;56980.53;5377647;26;20019;-79
2024/04/18 01:14:12;;;;;;;7.05;4.90;;;1.90;99.90;;;-144.05;84.99;56989.00;5377061;26;20000;-78
2024/04/18 01:16:38;;;;;;;6.57;4.20;;;;;;;-144.05;84.80;56989.00;5346505;26;20011;-78
2024/04/18 01:19:19;;;;;;;7.35;5.05;;;2.00;99.90;;;-144.05;84.73;56978.41;5377319;26;20000;-79
2024/04/18 01:21:49;;;;;;;6.07;4.22;;;1.80;99.90;;;-144.05;84.63;56991.13;5377445;26;20001;-78
2024/04/18 01:24:15;;;;;;;7.07;3.97;;;1.70;99.90;;;-144.05;84.65;56989.00;5341143;26;20005;-80
2024/04/18 01:26:41;;;;;;;7.70;4.45;;;5.20;99.90;;;-144.05;84.54;56978.41;5375201;26;20013;-79
2024/04/18 01:29:07;;;;;;;5.47;4.07;;;1.80;99.90;;;-144.05;84.47;56984.78;5346620;26;19996;-80
2024/04/18 01:31:33;;;;;;;6.28;4.50;;;1.70;99.90;;;-144.05;84.39;56997.50;5377392;26;20028;-80
2024/04/18 01:33:59;;;;;;;6.35;4.30;;;;;;;-144.05;84.37;57010.25;5377796;26;20043;-81
2024/04/18 01:36:25;;;;;;;8.55;4.45;;;1.70;99.90;;;-144.05;84.71;56993.25;5378011;26;20402;-81
2024/04/18 01:38:52;;;;;;;7.47;4.75;;;1.30;99.90;;;-144.05;84.61;56984.78;5377097;26;20007;-79
2024/04/18 01:41:20;;;;;;;8.48;4.68;;;1.70;99.90;;;-144.05;84.54;56999.63;5379469;26;20004;-79
2024/04/18 01:43:46;;;;;;;9.80;4.10;;;1.80;99.90;;;-144.05;84.61;56993.25;5349486;26;20011;-80
2024/04/18 01:46:12;;;;;;;11.63;4.75;;;;;;;-144.05;84.44;56967.78;5378237;26;20001;-79
2024/04/18 01:48:38;;;;;;;7.53;4.60;;;2.00;99.90;;;-144.05;84.78;56982.66;5346607;26;20091;-80
2024/04/18 01:51:05;;;;;;;7.05;4.50;;;;;;;-144.05;84.79;56965.66;5349614;26;20552;-80
2024/04/18 01:53:31;;;;;;;6.38;4.45;;;1.60;99.90;;;-144.05;84.96;57012.38;5380437;26;20326;-78
2024/04/18 01:55:57;;;;;;;6.97;4.60;;;5.90;99.90;;;-144.05;85.19;56978.41;5353737;26;20155;-80
2024/04/18 01:58:23;;;;;;;7.43;4.72;;;1.90;99.90;;;-144.05;85.23;56980.53;5377970;26;20081;-80
2024/04/18 02:00:49;;;;;;;8.13;4.72;;;;;;;-144.05;85.04;56974.16;5379995;26;20399;-80
2024/04/18 02:03:15;;;;;;;5.90;4.68;;;;;;;-144.05;85.31;57018.75;5380909;26;19996;-79
2024/04/18 02:05:42;;;;;;;8.57;4.95;;;5.30;99.90;;;-144.05;85.75;56999.63;5379475;26;20010;-79
2024/04/18 02:08:08;;;;;;;7.95;4.95;;;2.10;99.90;;;-144.05;85.54;56967.78;5338776;26;20010;-79
2024/04/18 02:10:34;;;;;;;9.85;5.38;;;;;;;-144.05;85.60;56957.16;5349376;26;20000;-80
2024/04/18 02:13:00;;;;;;;8.75;5.25;;;1.40;99.90;;;-144.05;85.63;56989.00;5348888;26;20001;-79
2024/04/18 02:15:26;;;;;;;6.97;4.70;;;1.20;99.90;;;-144.05;85.91;56993.25;5380410;26;20032;-79
2024/04/18 02:17:53;;;;;;;10.07;5.10;;;1.50;99.90;;;-144.05;85.80;56984.78;5380200;26;20000;-79
2024/04/18 02:20:20;;;;;;;8.25;5.05;;;1.80;99.90;;;-144.05;85.85;56967.78;5380472;26;20357;-79
2024/04/18 02:22:46;;;;;;;7.75;5.57;;;1.70;99.90;;;-144.05;85.72;56984.78;5351116;26;20000;-79
2024/04/18 02:25:13;;;;;;;9.73;5.70;;;1.50;99.90;;;-144.05;86.24;56989.00;5372131;26;20519;-79
2024/04/18 02:27:41;;;;;;;8.30;5.35;;;1.80;99.90;;;-144.05;86.22;57003.88;5380088;26;20016;-80
2024/04/18 02:30:10;;;;;;;9.68;5.70;;;2.10;99.90;;;-144.05;86.16;56995.38;5378595;26;20040;-81
2024/04/18 02:32:37;;;;;;;8.07;4.85;;;1.80;99.90;;;-144.05;86.30;56982.66;5378114;26;20527;-79
2024/04/18 02:35:03;;;;;;;11.07;5.47;;;2.10;99.90;;;-144.05;86.24;56959.28;5362115;26;20016;-79
2024/04/18 02:37:30;;;;;;;10.32;5.65;;;1.60;99.90;;;-144.05;86.33;56972.03;5374331;26;20046;-79
2024/04/18 02:39:56;;;;;;;10.77;5.50;;;1.60;99.90;;;-144.05;86.35;57001.75;5379829;26;20004;-82
2024/04/18 02:42:24;;;;;;;11.70;6.25;;;1.90;99.90;;;-144.05;86.70;57014.50;5380237;26;20453;-80
2024/04/18 02:44:50;;;;;;;9.70;5.65;;;2.20;99.90;;;-144.05;86.92;56982.66;5380187;26;19997;-82
2024/04/18 02:47:16;;;;;;;9.38;4.95;;;1.80;99.90;;;-144.05;87.15;56978.41;5371194;26;20460;-79
2024/04/18 02:49:42;;;;;;;8.30;5.38;;;;;;;-144.05;87.01;56997.50;5345524;26;20011;-81
2024/04/18 02:52:08;;;;;;;10.07;5.55;;;;;;;-144.05;86.95;56993.25;5378889;26;20015;-80
2024/04/18 02:54:34;;;;;;;9.32;5.40;;;2.10;99.90;;;-144.05;87.22;56980.53;5348726;26;20010;-78
2024/04/18 02:57:00;;;;;;;13.65;5.63;;;1.70;99.90;;;-144.05;87.32;56982.66;5380152;26;20015;-80
2024/04/18 02:59:26;;;;;;;9.75;6.05;;;1.70;99.90;;;-144.05;87.25;56974.16;5380388;26;20001;-78
2024/04/18 03:01:52;;;;;;;8.40;5.03;;;;;;;-144.05;87.45;56991.13;5379509;26;20004;-80
2024/04/18 03:04:18;;;;;;;7.60;5.15;;;1.50;99.90;;;-144.05;87.19;57006.00;5379551;26;20007;-77
2024/04/18 03:06:48;;;;;;;10.02;5.45;;;5.20;99.90;;;-144.05;87.50;56959.28;5348718;26;20000;-79
2024/04/18 03:09:15;;;;;;;9.45;5.13;;;1.90;99.90;;;-144.05;87.73;57006.00;5348579;26;20342;-79
2024/04/18 03:11:45;;;;;;;8.05;5.28;;;1.70;99.90;;;-144.05;87.92;56991.13;5345275;26;20001;-80
2024/04/18 03:14:11;;;;;;;7.07;4.82;;;5.80;99.90;;;-144.05;87.60;56984.78;5379528;26;20007;-78
2024/04/18 03:16:37;;;;;;;8.93;5.50;;;5.90;99.90;;;-144.05;87.60;56993.25;5379427;26;20337;-79
2024/04/18 03:19:11;;;;;;;9.60;5.43;;;2.00;99.90;;;-144.05;87.84;56972.03;5342125;26;20008;-79
2024/04/18 03:21:38;;;;;;;7.97;5.18;;;5.80;99.90;;;-144.05;87.92;56993.25;5343995;26;20498;-80
2024/04/18 03:24:21;;;;;;;7.53;5.00;;;1.70;99.90;;;-144.05;88.25;56999.63;5347022;26;20048;-80
2024/04/18 03:26:48;;;;;;;7.45;5.30;;;5.10;99.90;;;-144.05;88.26;56984.78;5379250;26;20073;-79
2024/04/18 03:29:14;;;;;;;11.10;6.13;;;1.60;99.90;;;-144.05;88.50;56976.28;5379549;26;20025;-79
2024/04/18 03:31:45;;;;;;;11.50;5.85;;;1.30;99.90;;;-144.05;88.10;56959.28;5378776;26;20077;-77
2024/04/18 03:34:10;;;;;;;13.00;6.50;;;1.40;99.90;;;-144.05;88.54;57027.25;5379480;26;20068;-79
2024/04/18 03:36:52;;;;;;;13.32;6.18;;;5.20;99.90;;;-144.05;88.51;56997.50;5342334;26;20008;-78
2024/04/18 03:39:18;;;;;;;12.57;6.47;;;1.90;99.90;;;-144.05;88.23;57006.00;5370171;26;20023;-79
2024/04/18 03:41:48;;;;;;;11.50;6.32;;;1.90;99.90;;;-144.05;88.33;56974.16;5379250;26;19997;-79
2024/04/18 03:44:15;;;;;;;12.55;7.00;;;2.00;99.90;;;-144.05;88.49;56974.16;5379262;26;20000;-80
2024/04/18 03:46:41;;;;;;;9.80;6.35;;;5.10;99.90;;;-144.05;88.80;56999.63;5379250;26;20038;-78
2024/04/18 03:49:10;;;;;;;10.43;6.50;;;1.70;99.90;;;-144.05;88.66;57016.63;5380089;26;20008;-78
2024/04/18 03:51:36;;;;;;;12.20;6.38;;;1.80;99.90;;;-144.05;88.73;56984.78;5349798;26;20000;-79
2024/04/18 03:54:02;;;;;;;12.18;6.63;;;1.50;99.90;;;-144.05;88.85;56959.28;5379329;26;20008;-81
2024/04/18 03:56:28;;;;;;;11.35;6.45;;;1.60;99.90;;;-144.05;88.74;56997.50;5379047;26;20004;-78
2024/04/18 03:58:55;;;;;;;9.13;6.00;;;5.20;99.90;;;-144.05;89.16;56986.91;5378741;26;20078;-80
2024/04/18 04:01:25;;;;;;;9.88;6.13;;;1.70;99.90;;;-144.05;89.13;56993.25;5378880;26;20055;-77
2024/04/18 04:03:52;;;;;;;10.32;6.20;;;1.70;99.90;;;-144.05;89.06;57003.88;5378291;26;20015;-78
2024/04/18 04:06:18;;;;;;;11.45;6.82;;;2.00;99.90;;;-144.05;88.94;56980.53;5378965;26;20368;-78
2024/04/18 04:08:44;;;;;;;11.88;6.07;;;;;;;-144.05;89.26;56999.63;5379416;26;19996;-78
2024/04/18 04:11:10;;;;;;;9.95;6.35;;;2.40;99.90;;;-144.05;89.24;56991.13;5379970;26;20000;-79
2024/04/18 04:13:36;;;;;;;10.05;6.60;;;6.00;99.90;;;-144.05;88.90;56984.78;5379793;26;20511;-79
2024/04/18 04:16:03;;;;;;;16.33;7.25;;;;;;;-144.05;89.10;56978.41;5379490;26;20077;-78
2024/04/18 04:18:28;;;;;;;11.95;6.68;;;1.70;99.90;;;-144.05;89.35;56976.28;5377840;26;20000;-78
2024/04/18 04:20:54;;;;;;;11.52;6.13;;;1.50;99.90;;;-144.05;89.17;56997.50;5379697;26;19996;-80
2024/04/18 04:23:20;;;;;;;9.82;5.60;;;1.80;99.90;;;-144.05;89.34;56980.53;5349495;26;20015;-81
2024/04/18 04:25:46;;;;;;;11.57;5.78;;;;;;;-144.05;89.60;56993.25;5370562;26;20007;-78
2024/04/18 04:28:12;;;;;;;11.15;5.90;;;;;;;-144.05;89.53;56993.25;5380365;26;20014;-80
2024/04/18 04:30:38;;;;;;;9.95;6.35;;;6.20;99.90;;;-144.05;89.16;56997.50;5380148;26;20032;-79
2024/04/18 04:33:04;;;;;;;11.32;5.88;;;;;;;-144.05;89.33;56991.13;5379533;26;20011;-80
2024/04/18 04:35:30;;;;;;;11.82;5.43;;;1.60;99.90;;;-144.05;89.32;56984.78;5380734;26;20085;-79
2024/04/18 04:37:58;;;;;;;10.98;6.05;;;5.10;99.90;;;-144.05;89.24;57001.75;5379899;26;20000;-80
2024/04/18 04:40:24;;;;;;;10.90;6.68;;;1.70;99.90;;;-144.05;89.24;56984.78;5379791;26;20000;-81
2024/04/18 04:42:49;;;;;;;12.75;5.97;;;1.70;99.90;;;-144.05;89.30;57010.25;5379040;26;20326;-79
2024/04/18 04:45:15;;;;;;;14.88;6.28;;;1.90;99.90;;;-144.05;89.46;56995.38;5379317;26;20011;-80
2024/04/18 04:47:41;;;;;;;10.90;5.85;;;1.80;99.90;;;-144.05;89.18;57018.75;5380117;26;20024;-79
2024/04/18 04:50:07;;;;;;;15.18;7.80;;;1.50;99.90;;;-144.05;89.31;56997.50;5380242;26;20000;-79
2024/04/18 04:52:33;;;;;;;14.20;6.35;;;1.80;99.90;;;-144.05;89.55;56993.25;5348332;26;20407;-81
2024/04/18 04:54:59;;;;;;;13.68;6.40;;;1.90;99.90;;;-144.05;89.21;57010.25;5379556;26;20000;-78
2024/04/18 04:57:25;;;;;;;9.77;5.25;;;;;;;-144.05;89.39;56986.91;5379618;26;20008;-80
2024/04/18 04:59:51;;;;;;;16.83;8.02;;;5.60;99.90;;;-144.05;89.21;56974.16;5379243;26;20032;-79
2024/04/18 05:02:17;;;;;;;14.48;7.10;;;;;;;-144.05;89.28;57010.25;5380304;26;20007;-79
2024/04/18 05:04:44;;;;;;;7.50;5.40;;;1.80;99.90;;;-144.05;89.04;56993.25;5381191;26;20433;-78
2024/04/18 05:07:10;;;;;;;14.50;7.60;;;;;;;-144.05;89.34;57003.88;5353948;26;20073;-78
2024/04/18 05:09:36;;;;;;;12.57;6.95;;;1.70;99.90;;;-144.05;89.00;56995.38;5379798;26;20004;-79
2024/04/18 05:12:03;;;;;;;10.48;6.00;;;1.40;99.90;;;-144.05;89.13;56991.13;5379964;26;20007;-80
2024/04/18 05:14:29;;;;;;;12.43;5.78;;;1.40;99.90;;;-144.05;89.05;57001.75;5379505;26;20040;-78
2024/04/18 05:16:54;;;;;;;7.90;4.93;;;1.60;99.90;;;-144.05;88.86;56999.63;5382064;26;20278;-78
2024/04/18 05:19:21;;;;;;;9.05;5.30;;;;;;;-144.05;89.02;56997.50;5352034;26;19996;-78
2024/04/18 05:21:48;;;;;;;11.93;5.75;;;1.90;99.90;;;-144.05;89.10;56991.13;5383210;26;20004;-80
2024/04/18 05:24:14;;;;;;;11.57;5.93;;;1.90;99.90;;;-144.05;89.04;57012.38;5377103;26;20001;-79
2024/04/18 05:26:40;;;;;;;9.88;5.07;;;;;;;-144.05;88.84;56950.78;5375530;26;19997;-81
2024/04/18 05:31:51;;;;;;;10.88;5.32;;;2.10;99.90;;;-144.05;88.77;56995.38;5383809;26;20471;-79
2024/04/18 05:34:17;;;;;;;12.73;5.85;;;;;;;-144.05;88.96;57012.38;5383730;26;20000;-80
2024/04/18 05:36:45;;;;;;;8.73;5.13;;;1.70;99.90;;;-144.05;89.01;56967.78;5383702;26;20001;-79
2024/04/18 05:39:11;;;;;;;8.57;4.80;;;;;;;-144.05;88.72;56982.66;5375441;26;20005;-82
2024/04/18 05:41:38;;;;;;;8.82;5.28;;;;;;;-144.05;88.50;56993.25;5346210;26;20012;-77
2024/04/18 05:44:04;;;;;;;10.02;5.28;;;;;;;-144.05;88.23;56957.16;5363129;26;20025;-75
2024/04/18 05:46:31;;;;;;;12.48;5.82;;;;;;;-144.05;88.66;56963.53;5382452;26;20047;-78
2024/04/18 05:48:56;;;;;;;8.75;4.82;;;1.70;99.90;;;-144.05;88.65;56984.78;5399057;26;20050;-80
2024/04/18 05:51:22;;;;;;;11.13;5.68;;;6.10;99.90;;;-144.05;88.26;57031.50;5373316;26;20028;-81
2024/04/18 05:53:48;;;;;;;11.90;5.38;;;1.60;99.90;;;-144.05;88.43;56991.13;5351685;26;20015;-81
2024/04/18 05:56:14;;;;;;;9.45;5.75;;;2.60;99.90;;;-144.05;88.40;56978.41;5361730;26;20038;-80
2024/04/18 05:58:44;;;;;;;9.57;4.47;;;2.30;99.90;;;-144.05;87.58;56948.66;5374442;26;20456;-80
2024/04/18 06:01:10;;;;;;;11.68;4.97;;;2.40;99.90;;;-144.05;87.35;57008.13;5384639;26;20217;-80
2024/04/18 06:03:36;;;;;;;17.58;5.70;;;2.80;99.90;;;-144.05;87.52;57008.13;5399896;26;20000;-80
2024/04/18 06:06:02;;;;;;;8.63;4.80;;;2.60;99.90;;;-144.05;86.98;57010.25;5398638;26;20073;-81
2024/04/18 06:08:28;;;;;;;11.63;4.57;;;2.40;99.90;;;-144.05;86.97;56976.28;5397191;26;20051;-82
2024/04/18 06:10:54;;;;;;;8.45;4.25;;;;;;;-144.05;86.78;56976.28;5355051;26;20008;-81
2024/04/18 06:13:24;;;;;;;10.35;3.63;;;2.70;99.90;;;-144.05;86.45;57014.50;5375290;26;20000;-81
2024/04/18 06:15:51;;;;;;;9.32;3.70;;;5.60;99.90;;;-144.05;86.15;56982.66;5399444;26;20000;-79
2024/04/18 06:18:17;;;;;;;8.98;4.22;;;2.10;99.90;;;-144.05;86.32;56963.53;5384214;26;20008;-78
2024/04/18 06:20:46;;;;;;;11.93;4.10;;;1.80;99.90;;;-144.05;86.03;56982.66;5347389;26;20001;-81
2024/04/18 06:23:13;;;;;;;7.80;3.88;;;;;;;-144.05;83.56;56946.53;5383202;26;20066;-82
2024/04/18 06:25:41;;;;;;;10.57;3.85;;;2.30;99.90;;;-144.05;83.59;56961.41;5373506;26;20000;-79
2024/04/18 06:28:12;;;;;;;13.57;4.07;;;6.10;99.90;;;-144.05;83.81;56967.78;5347632;26;20038;-81
2024/04/18 06:30:41;;;;;;;11.38;4.50;;;6.20;99.90;;;-144.05;83.02;56955.03;5348757;26;20008;-79
2024/04/18 06:33:07;;;;;;;8.70;3.20;;;4.00;99.90;;;-144.05;82.86;56989.00;5385573;26;20011;-80
2024/04/18 06:35:34;;;;;;;9.23;3.40;;;;;;;-144.05;80.58;56946.53;5382911;26;20000;-79
2024/04/18 06:37:59;;;;;;;8.98;3.00;;;4.40;99.90;;;-144.05;80.94;56978.41;5384809;26;20011;-81
2024/04/18 06:40:26;;;;;;;9.02;3.05;;;;;;;-144.05;80.72;56995.38;5348465;26;20001;-80
2024/04/18 06:42:52;;;;;;;6.75;3.10;;;6.60;99.90;;;-144.05;80.14;56982.66;5381951;26;19996;-82
2024/04/18 06:45:21;;;;;;;5.50;2.60;;;7.30;99.90;;;-144.05;79.80;56989.00;5384574;26;20004;-79
2024/04/18 06:47:47;;;;;;;8.45;3.00;;;7.20;99.90;;;-144.05;79.92;56976.28;5383494;26;20001;-81
2024/04/18 06:50:14;;;;;;;10.40;2.70;;;4.00;99.90;;;-144.05;79.93;57006.00;5347152;26;19997;-78
2024/04/18 06:52:40;;;;;;;6.35;2.75;;;;;;;-144.05;78.95;57006.00;5378637;26;20074;-79
2024/04/18 06:55:06;;;;;;;6.35;2.40;;;4.10;99.90;;;-144.05;79.36;56997.50;5382971;26;20017;-81
2024/04/18 06:57:32;;;;;;;7.13;2.58;;;6.60;99.90;;;-144.05;79.02;56940.16;5382920;26;20004;-81
2024/04/18 06:59:58;;;;;;;6.80;2.50;;;;;;;-144.05;78.58;56989.00;5381841;26;20019;-80
2024/04/18 07:02:24;;;;;;;9.35;3.20;;;4.30;99.90;;;-144.05;78.40;56957.16;5383569;26;20004;-81
2024/04/18 07:04:50;;;;;;;8.13;2.95;;;;;;;-144.05;78.01;56925.28;5384063;26;20000;-79
2024/04/18 07:07:16;;;;;;;10.00;3.15;;;4.50;99.90;;;-144.05;77.38;56995.38;5362351;26;19997;-79
2024/04/18 07:09:42;;;;;;;11.23;2.75;;;7.80;99.90;;;-144.05;77.21;56972.03;5318942;26;20485;-81
2024/04/18 07:12:08;;;;;;;9.15;2.55;;;6.90;99.90;;;-144.05;76.92;56972.03;5370519;26;20015;-80
2024/04/18 07:14:34;;;;;;;7.65;3.42;;;;;;;-144.05;76.70;56991.13;5384743;26;20000;-82
2024/04/18 07:17:00;;;;;;;13.25;3.10;;;7.20;99.90;;;-144.05;75.30;56967.78;5383093;26;20326;-79
2024/04/18 07:19:26;;;;;;;5.85;2.42;;;6.90;99.90;;;-144.05;75.17;56959.28;5382987;26;20069;-80
2024/04/18 07:21:52;;;;;;;5.72;2.50;;;7.90;99.90;;;-144.05;74.85;56961.41;5385202;26;20472;-78
2024/04/18 07:24:18;;;;;;;4.82;2.58;;;7.50;99.90;;;-144.05;74.83;56955.03;5359920;26;20083;-80
2024/04/18 07:26:44;;;;;;;8.18;2.47;;;;;;;-144.05;73.96;56974.16;5381929;26;20254;-83
2024/04/18 07:29:10;;;;;;;10.65;2.60;;;7.00;99.90;;;-144.05;74.06;56974.16;5385221;26;20004;-79
2024/04/18 07:31:37;;;;;;;7.28;2.47;;;;;;;-144.05;75.01;56969.91;5383467;26;20011;-80
2024/04/18 07:34:03;;;;;;;10.55;2.78;;;;;;;-144.05;74.85;56984.78;5351733;26;20107;-80
2024/04/18 07:36:28;;;;;;;7.63;2.08;;;5.00;99.90;;;-144.05;74.11;56963.53;5383510;26;20584;-80
2024/04/18 07:38:56;;;;;;;5.82;2.67;;;;;;;-144.05;73.44;56967.78;5368929;26;20004;-80
2024/04/18 07:41:22;;;;;;;8.63;2.58;;;6.90;99.90;;;-144.05;73.88;56955.03;5347344;26;20002;-81
2024/04/18 07:43:47;;;;;;;5.90;2.22;;;7.30;99.90;;;-144.05;73.34;56974.16;5346218;26;20124;-81
2024/04/18 07:46:15;;;;;;;7.63;2.83;;;8.00;99.90;;;-144.05;72.97;56940.16;5376546;26;20004;-82
2024/04/18 07:48:41;;;;;;;9.88;4.35;;;6.60;99.90;;;-144.05;72.04;56967.78;5376947;26;19996;-80
2024/04/18 07:51:07;;;;;;;11.52;4.18;;;7.20;99.90;;;-144.05;71.06;56972.03;5368590;26;20321;-81
2024/04/18 07:53:33;;;;;;;9.52;3.25;;;8.00;99.90;;;-144.05;71.33;56967.78;5381636;26;20407;-82
2024/04/18 07:55:59;;;;;;;7.05;2.55;;;;;;;-144.05;70.73;56967.78;5379351;26;20403;-80
2024/04/18 07:58:26;;;;;;;9.50;2.78;;;7.90;99.90;;;-144.05;71.03;56989.00;5379252;26;20089;-78
2024/04/18 08:00:53;;;;;;;8.52;2.65;;;8.60;99.90;;;-144.05;71.17;56989.00;5381458;26;20004;-81
2024/04/18 08:03:19;;;;;;;9.05;2.30;;;;;;;-144.05;70.94;56974.16;5381766;26;20012;-82
2024/04/18 08:05:45;;;;;;;6.00;2.28;;;7.70;99.90;;;-144.05;70.05;56980.53;5346097;26;20016;-81
2024/04/18 08:08:12;;;;;;;7.05;2.60;;;7.50;99.90;;;-144.05;68.26;56963.53;5381156;26;20015;-81
2024/04/18 08:10:38;;;;;;;8.30;3.25;;;7.20;99.90;;;-144.05;68.87;56957.16;5380983;26;20147;-79
2024/04/18 08:13:04;;;;;;;6.28;2.60;;;7.30;99.90;;;-144.05;68.57;56923.19;5346014;26;20417;-78
2024/04/18 08:15:30;;;;;;;8.02;2.75;;;;;;;-144.05;68.75;56980.53;5346416;26;20009;-80
2024/04/18 08:17:56;;;;;;;6.38;2.33;;;7.10;99.90;;;-144.05;68.81;56976.28;5379001;26;20032;-82
2024/04/18 08:20:22;;;;;;;9.15;2.30;;;;;;;-144.05;68.71;56965.66;5379831;26;20023;-81
2024/04/18 08:22:50;;;;;;;6.97;2.30;;;7.50;99.90;;;-144.05;68.87;56948.66;5380890;26;20451;-81
2024/04/18 08:25:16;;;;;;;8.82;2.72;;;7.60;99.90;;;-144.05;67.91;56933.78;5343832;26;20465;-82
2024/04/18 08:27:42;;;;;;;8.70;2.97;;;7.30;99.90;;;-144.05;66.65;56927.41;5376256;26;20036;-81
2024/04/18 08:30:10;;;;;;;10.73;2.65;;;8.10;99.90;;;-144.05;65.91;56938.03;5381354;26;20468;-79
2024/04/18 08:32:35;;;;;;;8.38;2.58;;;7.70;99.90;;;-144.05;65.23;56952.91;5382411;26;20051;-80
2024/04/18 08:35:02;;;;;;;7.68;2.13;;;;;;;-144.05;63.94;56946.53;5381831;26;20012;-80
2024/04/18 08:37:28;;;;;;;5.55;2.65;;;7.40;99.90;;;-144.05;63.18;56959.28;5382590;26;20007;-81
2024/04/18 08:39:53;;;;;;;8.98;2.30;;;7.20;99.90;;;-144.05;61.96;56938.03;5381802;26;20024;-80
2024/04/18 08:42:26;;;;;;;8.05;2.60;;;10.30;99.90;;;-144.05;58.17;56942.28;5382050;26;20011;-82
2024/04/18 08:44:55;;;;;;;9.25;2.47;;;;;;;-144.05;58.14;56929.53;5382067;26;20070;-80
2024/04/18 08:47:32;;;;;;;7.90;2.45;;;14.20;99.90;;;-144.05;55.03;56910.44;5344622;26;20009;-79
2024/04/18 08:49:59;;;;;;;6.43;1.80;;;8.70;99.90;;;-144.05;54.42;56948.66;5378380;26;20073;-79
2024/04/18 08:52:31;;;;;;;10.82;2.45;;;8.70;99.90;;;-144.05;55.16;56955.03;5378964;26;20015;-80
2024/04/18 08:54:57;;;;;;;8.52;2.22;;;8.00;99.90;;;-144.05;56.23;56923.19;5387666;26;20008;-79
2024/04/18 08:57:26;;;;;;;9.55;1.95;;;8.40;99.90;;;-144.05;55.88;56940.16;5370234;26;20001;-78
2024/04/18 09:00:00;;;;;;;9.93;2.17;;;11.30;99.90;;;-144.05;53.87;56933.78;5380920;26;20319;-78
2024/04/18 09:02:30;;;;;;;15.23;3.28;;;8.70;99.90;;;-144.05;54.84;56948.66;5379671;26;20046;-79
2024/04/18 09:04:58;;;;;;;10.27;2.50;;;10.90;99.90;;;-144.05;55.07;56925.28;5380135;26;20396;-79
2024/04/18 09:07:24;;;;;;;7.32;2.25;;;8.90;99.90;;;-144.05;54.38;56946.53;5380295;26;20000;-80
2024/04/18 09:09:53;;;;;;;9.88;2.72;;;9.00;99.90;;;-144.05;52.49;56925.28;5344801;26;20033;-80
2024/04/18 09:12:19;;;;;;;6.68;2.15;;;;;;;-144.05;52.64;56933.78;5342187;26;20051;-79
2024/04/18 09:14:45;;;;;;;8.95;2.30;;;9.20;99.90;;;-144.05;52.78;56914.69;5374756;26;20000;-81
2024/04/18 09:17:13;;;;;;;6.35;2.45;;;8.80;99.90;;;-144.05;52.84;56929.53;5348221;26;20000;-79
2024/04/18 09:19:39;;;;;;;7.13;1.90;;;14.40;99.90;;;-144.05;53.64;56923.19;5379521;26;20389;-80
2024/04/18 09:22:05;;;;;;;8.48;1.98;;;14.20;99.90;;;-144.05;53.43;56967.78;5380755;26;20008;-81
2024/04/18 09:24:31;;;;;;;7.10;1.90;;;7.50;99.90;;;-144.05;53.04;56946.53;5372617;26;20334;-80
2024/04/18 09:26:58;;;;;;;6.30;1.90;;;7.60;99.90;;;-144.05;55.09;56933.78;5378394;26;20001;-80
2024/04/18 09:29:24;;;;;;;4.78;1.77;;;8.00;99.90;;;-144.05;56.32;56940.16;5381711;26;20001;-80
2024/04/18 09:31:54;;;;;;;4.53;1.77;;;7.70;99.90;;;-144.05;57.76;56950.78;5380021;26;20344;-80
2024/04/18 09:34:21;;;;;;;7.10;2.10;;;7.40;99.90;;;-144.05;58.31;56978.41;5377588;26;20040;-81
2024/04/18 09:36:47;;;;;;;7.38;1.92;;;13.20;99.90;;;-144.05;58.85;56950.78;5378451;26;20001;-80
2024/04/18 09:39:26;;;;;;;6.28;1.88;;;7.60;99.90;;;-144.05;58.38;56965.66;5370955;26;20085;-80
2024/04/18 09:42:07;;;;;;;2.78;1.52;;;11.30;99.90;;;-144.05;58.61;56989.00;5344334;26;20001;-79
2024/04/18 09:44:42;;;;;;;5.50;1.52;;;14.20;99.90;;;-144.05;57.90;56946.53;5378073;26;20413;-79
2024/04/18 09:47:09;;;;;;;3.95;2.15;;;;;;;-144.05;56.43;56959.28;5360986;26;20070;-80
2024/04/18 09:49:39;;;;;;;4.97;1.70;;;8.50;99.90;;;-144.05;56.26;56959.28;5372022;26;19996;-78
2024/04/18 09:52:07;;;;;;;5.47;1.50;;;10.80;99.90;;;-144.05;55.66;56959.28;5376477;26;20000;-79
2024/04/18 09:54:37;;;;;;;7.43;1.98;;;8.30;99.90;;;-144.05;54.39;56906.19;5378101;26;20000;-81
2024/04/18 09:57:06;;;;;;;5.40;1.73;;;7.90;99.90;;;-144.05;54.99;56969.91;5379715;26;20019;-80
2024/04/18 09:59:37;;;;;;;5.55;1.52;;;7.60;99.90;;;-144.05;54.51;56950.78;5379904;26;20449;-78
2024/04/18 10:02:11;;;;;;;5.35;1.85;;;13.90;99.90;;;-144.05;54.73;56950.78;5381161;26;20000;-77
2024/04/18 10:04:42;;;;;;;6.80;1.73;;;10.70;99.90;;;-144.05;53.55;56967.78;5383418;26;20009;-79
2024/04/18 10:07:17;;;;;;;9.07;1.80;;;14.40;99.90;;;-144.05;53.95;56921.06;5382506;26;20004;-78
2024/04/18 10:09:47;;;;;;;6.88;1.92;;;8.10;99.90;;;-144.05;53.07;56938.03;5393872;26;20014;-81
2024/04/18 10:12:13;;;;;;;5.15;1.40;;;7.60;99.90;;;-144.05;53.31;56914.69;5382647;26;19996;-78
2024/04/18 10:14:41;;;;;;;3.40;1.55;;;7.60;99.90;;;-144.05;51.90;56955.03;5384577;26;20001;-79
2024/04/18 10:17:22;;;;;;;3.67;1.40;;;14.10;99.90;;;-144.05;52.25;56961.41;5352901;26;19997;-77
2024/04/18 10:19:53;;;;;;;7.53;1.60;;;8.30;99.90;;;-144.05;52.10;56946.53;5348004;26;20095;-79
2024/04/18 10:22:22;;;;;;;5.80;1.10;;;14.40;99.90;;;-144.05;51.14;56940.16;5335932;26;20012;-78
2024/04/18 10:24:51;;;;;;;4.05;1.23;;;14.30;99.90;;;-144.05;50.92;56940.16;5361345;26;20436;-81